Time;durP1;ratioP1;P1;durP2;ratioP2;P2;SDS_P1;SDS_P2;PMS_P1;PMS_P2;Temp;Humidity;BMP_temperature;BMP_pressure;BME280_temperature;BME280_humidity;BME280_pressure;Samples;Min_cycle;Max_cycle;Signal;HPM_P1;HPM_P2
2022/04/28 00:00:08;;;;;;;8.35;6.38;;;9.30;91.60;;;;;;2080228;28;20025;-69
2022/04/28 00:01:08;;;;;;;7.72;5.78;;;9.30;91.80;;;;;;2081211;28;20025;-69
2022/04/28 00:02:09;;;;;;;7.45;6.47;;;9.20;91.70;;;;;;2080501;28;20036;-69
2022/04/28 00:03:11;;;;;;;9.93;5.70;;;9.20;92.10;;;;;;2080006;28;20064;-69
2022/04/28 00:04:11;;;;;;;10.57;6.63;;;9.20;92.20;;;;;;2079615;28;20029;-69
2022/04/28 00:05:12;;;;;;;8.82;6.93;;;9.20;92.30;;;;;;2078961;28;20045;-69
2022/04/28 00:06:14;;;;;;;7.80;6.47;;;9.20;92.50;;;;;;2079962;28;20036;-69
2022/04/28 00:07:14;;;;;;;9.73;5.88;;;9.20;92.70;;;;;;2079884;28;20032;-69
2022/04/28 00:08:15;;;;;;;5.75;5.15;;;9.10;92.50;;;;;;2079963;28;20029;-69
2022/04/28 00:09:16;;;;;;;8.00;6.53;;;9.10;92.20;;;;;;2081043;28;20112;-69
2022/04/28 00:10:17;;;;;;;8.68;5.53;;;9.10;92.70;;;;;;2079437;28;20021;-69
2022/04/28 00:11:17;;;;;;;8.57;6.80;;;9.10;93.00;;;;;;2079210;28;20417;-69
2022/04/28 00:12:18;;;;;;;9.00;7.28;;;9.10;93.30;;;;;;2080045;28;20041;-69
2022/04/28 00:13:18;;;;;;;6.25;5.65;;;9.10;93.50;;;;;;2079915;28;20041;-69
2022/04/28 00:14:20;;;;;;;9.60;6.10;;;9.10;92.90;;;;;;2080328;28;20029;-70
2022/04/28 00:15:20;;;;;;;8.68;6.57;;;9.10;92.70;;;;;;2077846;28;20100;-70
2022/04/28 00:16:21;;;;;;;9.80;7.28;;;9.10;93.00;;;;;;2084515;28;20473;-70
2022/04/28 00:17:21;;;;;;;7.65;6.35;;;9.10;93.50;;;;;;2080529;28;20021;-70
2022/04/28 00:18:22;;;;;;;9.52;6.95;;;9.00;93.40;;;;;;2080152;28;20052;-70
2022/04/28 00:19:22;;;;;;;6.80;5.90;;;9.00;93.70;;;;;;2079913;28;20017;-70
2022/04/28 00:20:23;;;;;;;7.40;6.50;;;9.00;93.40;;;;;;2080400;28;20029;-70
2022/04/28 00:21:23;;;;;;;7.68;6.97;;;9.00;93.80;;;;;;2080488;28;20468;-70
2022/04/28 00:22:24;;;;;;;7.50;6.03;;;9.00;94.00;;;;;;2082676;28;20022;-70
2022/04/28 00:23:25;;;;;;;12.07;7.95;;;9.00;93.80;;;;;;2079557;28;20021;-70
2022/04/28 00:24:25;;;;;;;8.38;6.63;;;8.90;94.00;;;;;;2080989;28;20492;-70
2022/04/28 00:25:26;;;;;;;9.48;7.20;;;8.90;94.20;;;;;;2079860;28;20025;-70
2022/04/28 00:26:26;;;;;;;10.20;6.72;;;9.00;94.80;;;;;;2081302;28;20021;-70
2022/04/28 00:27:27;;;;;;;7.63;6.60;;;8.90;94.60;;;;;;2083337;28;20483;-70
2022/04/28 00:28:27;;;;;;;7.72;6.00;;;8.90;94.80;;;;;;2083518;28;20014;-70
2022/04/28 00:29:28;;;;;;;9.73;6.63;;;8.90;94.40;;;;;;2081208;28;20053;-70
2022/04/28 00:30:28;;;;;;;6.72;5.85;;;8.90;94.60;;;;;;2083186;28;20021;-70
2022/04/28 00:31:29;;;;;;;8.80;6.25;;;8.90;94.70;;;;;;2079555;28;20022;-70
2022/04/28 00:32:30;;;;;;;6.30;5.70;;;8.80;94.80;;;;;;2076268;28;20056;-70
2022/04/28 00:33:30;;;;;;;9.40;7.05;;;8.80;94.70;;;;;;2080036;28;20026;-69
2022/04/28 00:34:31;;;;;;;6.68;5.95;;;8.80;95.30;;;;;;2079864;28;20018;-69
2022/04/28 00:35:32;;;;;;;8.38;5.97;;;8.80;95.10;;;;;;2079426;28;20463;-70
2022/04/28 00:36:32;;;;;;;9.02;6.38;;;8.80;94.80;;;;;;2079994;28;20072;-70
2022/04/28 00:37:33;;;;;;;10.20;7.13;;;8.80;94.80;;;;;;2078767;28;20413;-69
2022/04/28 00:38:34;;;;;;;9.85;7.15;;;8.80;95.10;;;;;;2081976;28;20092;-69
2022/04/28 00:39:35;;;;;;;10.90;6.50;;;8.70;95.50;;;;;;2080094;28;20060;-69
2022/04/28 00:40:35;;;;;;;7.47;5.80;;;8.70;95.40;;;;;;2080772;28;20069;-69
2022/04/28 00:41:36;;;;;;;10.65;6.82;;;8.70;95.10;;;;;;2080119;28;20059;-69
2022/04/28 00:42:36;;;;;;;9.02;7.80;;;8.70;95.20;;;;;;2079684;28;20025;-70
2022/04/28 00:43:53;;;;;;;8.07;6.72;;;8.70;95.70;;;;;;2081594;28;20116;-70
2022/04/28 00:44:54;;;;;;;11.13;7.45;;;8.70;96.40;;;;;;2080433;28;20025;-70
2022/04/28 00:45:55;;;;;;;8.63;6.82;;;8.70;96.30;;;;;;2078482;28;20061;-70
2022/04/28 00:46:56;;;;;;;9.10;7.38;;;8.70;96.20;;;;;;2078310;28;20555;-70
2022/04/28 00:50:41;;;;;;;11.73;7.85;;;8.60;96.90;;;;;;2079720;28;20429;-70
2022/04/28 00:51:41;;;;;;;11.30;7.82;;;8.60;97.40;;;;;;2079870;28;20043;-70
2022/04/28 00:52:42;;;;;;;9.82;6.80;;;8.60;97.70;;;;;;2082183;28;20017;-70
2022/04/28 00:53:48;;;;;;;8.98;6.95;;;8.60;97.20;;;;;;2079833;28;20178;-70
2022/04/28 00:54:53;;;;;;;8.52;6.82;;;8.50;97.40;;;;;;2081583;28;20095;-70
2022/04/28 00:55:54;;;;;;;9.65;7.70;;;8.50;97.60;;;;;;2079545;28;20029;-70
2022/04/28 00:56:56;;;;;;;10.52;7.50;;;8.50;98.00;;;;;;2080362;28;20523;-70
2022/04/28 00:57:58;;;;;;;10.52;7.47;;;8.50;97.70;;;;;;2079896;28;20052;-70
2022/04/28 00:59:02;;;;;;;10.60;7.00;;;8.50;98.00;;;;;;2080836;28;20025;-70
2022/04/28 01:00:03;;;;;;;9.63;6.75;;;8.50;98.00;;;;;;2080032;28;20524;-70
2022/04/28 01:01:04;;;;;;;10.95;6.90;;;8.50;97.60;;;;;;2077730;28;20152;-70
2022/04/28 01:02:06;;;;;;;9.07;7.07;;;8.50;97.40;;;;;;2079364;28;20025;-70
2022/04/28 01:03:06;;;;;;;9.10;7.00;;;8.50;97.60;;;;;;2079530;28;20037;-70
2022/04/28 01:04:07;;;;;;;12.35;7.95;;;8.40;97.90;;;;;;2081307;28;20037;-70
2022/04/28 01:05:09;;;;;;;9.98;7.35;;;8.50;99.30;;;;;;2079709;28;20041;-70
2022/04/28 01:06:10;;;;;;;9.43;7.47;;;8.40;98.90;;;;;;2080053;28;20374;-70
2022/04/28 01:07:11;;;;;;;10.02;7.88;;;8.40;98.50;;;;;;2079086;28;20049;-70
2022/04/28 01:08:12;;;;;;;9.70;8.23;;;8.40;98.90;;;;;;2079689;28;20717;-70
2022/04/28 01:09:14;;;;;;;12.27;8.10;;;8.40;99.40;;;;;;2082224;28;20111;-70
2022/04/28 01:10:15;;;;;;;8.82;7.78;;;8.40;99.80;;;;;;2079815;28;20018;-70
2022/04/28 01:11:19;;;;;;;8.32;7.53;;;8.40;99.80;;;;;;2079492;28;20048;-70
2022/04/28 01:12:21;;;;;;;12.52;8.27;;;8.40;99.40;;;;;;2079986;28;20026;-70
2022/04/28 01:13:22;;;;;;;10.65;7.88;;;8.40;99.90;;;;;;2081637;28;20120;-70
2022/04/28 01:14:22;;;;;;;10.77;8.38;;;8.40;99.90;;;;;;2079940;28;20021;-69
2022/04/28 01:15:23;;;;;;;9.75;7.72;;;8.40;99.90;;;;;;2078890;28;20040;-69
2022/04/28 01:16:24;;;;;;;14.25;10.45;;;8.30;99.90;;;;;;2080029;28;20067;-69
2022/04/28 01:17:24;;;;;;;13.27;9.85;;;8.30;99.90;;;;;;2080271;28;20029;-69
2022/04/28 01:18:25;;;;;;;17.60;10.55;;;8.30;99.90;;;;;;2081092;28;20033;-69
2022/04/28 01:19:25;;;;;;;14.27;9.73;;;8.30;99.90;;;;;;2079768;28;20501;-69
2022/04/28 01:20:26;;;;;;;13.77;11.13;;;8.30;99.90;;;;;;2080516;28;20017;-69
2022/04/28 01:21:26;;;;;;;14.52;10.15;;;8.30;99.90;;;;;;2077754;28;20025;-70
2022/04/28 01:22:27;;;;;;;13.57;9.02;;;8.30;99.90;;;;;;2080097;28;20029;-70
2022/04/28 01:23:28;;;;;;;10.93;7.82;;;8.30;99.90;;;;;;2081951;28;20366;-70
2022/04/28 01:24:30;;;;;;;13.27;9.18;;;8.30;99.90;;;;;;2082413;28;20614;-70
2022/04/28 01:25:31;;;;;;;16.95;10.40;;;8.30;99.90;;;;;;2081878;28;20045;-70
2022/04/28 01:26:32;;;;;;;14.10;10.45;;;8.30;99.90;;;;;;2080041;28;20030;-70
2022/04/28 01:27:34;;;;;;;12.13;8.30;;;8.30;99.90;;;;;;2082015;28;20029;-70
2022/04/28 01:28:35;;;;;;;12.45;9.55;;;8.30;99.90;;;;;;2079305;28;20013;-70
2022/04/28 01:29:36;;;;;;;10.60;7.80;;;8.30;99.90;;;;;;2079678;28;20024;-70
2022/04/28 01:30:37;;;;;;;9.35;8.38;;;8.30;99.90;;;;;;2077900;28;20544;-70
2022/04/28 01:31:38;;;;;;;15.15;9.88;;;8.30;99.90;;;;;;2079619;28;20128;-70
2022/04/28 01:32:39;;;;;;;10.15;8.95;;;8.30;99.90;;;;;;2078799;28;20021;-70
2022/04/28 01:33:39;;;;;;;13.20;9.43;;;8.30;99.90;;;;;;2081259;28;20124;-70
2022/04/28 01:34:40;;;;;;;13.23;10.85;;;8.30;99.90;;;;;;2079211;28;20060;-70
2022/04/28 01:35:40;;;;;;;10.48;8.10;;;8.30;99.90;;;;;;2080231;28;20029;-70
2022/04/28 01:36:41;;;;;;;9.60;8.57;;;8.30;99.90;;;;;;2079528;28;20115;-70
2022/04/28 01:37:41;;;;;;;10.95;7.82;;;8.30;99.90;;;;;;2079260;28;20049;-70
2022/04/28 01:38:42;;;;;;;12.30;9.70;;;8.30;99.90;;;;;;2078778;28;20493;-70
2022/04/28 01:39:43;;;;;;;12.18;10.32;;;8.30;99.90;;;;;;2082523;28;20124;-70
2022/04/28 01:40:44;;;;;;;12.80;10.15;;;8.30;99.90;;;;;;2080944;28;20036;-70
2022/04/28 01:41:47;;;;;;;12.52;10.40;;;8.30;99.90;;;;;;2081782;28;20033;-70
2022/04/28 01:42:48;;;;;;;11.35;9.73;;;8.30;99.90;;;;;;2077488;28;20041;-70
2022/04/28 01:43:48;;;;;;;11.90;8.73;;;8.30;99.90;;;;;;2080689;28;20509;-70
2022/04/28 01:44:50;;;;;;;12.48;9.98;;;8.30;99.90;;;;;;2080017;28;20107;-70
2022/04/28 01:45:50;;;;;;;13.07;10.48;;;8.30;99.90;;;;;;2079125;28;20650;-70
2022/04/28 01:46:51;;;;;;;15.88;11.07;;;8.30;99.90;;;;;;2082393;28;20400;-70
2022/04/28 01:47:51;;;;;;;12.80;9.77;;;8.30;99.90;;;;;;2082462;28;20025;-70
2022/04/28 01:48:52;;;;;;;10.73;7.95;;;8.30;99.90;;;;;;2078862;28;20064;-70
2022/04/28 01:49:52;;;;;;;14.02;10.00;;;8.20;99.90;;;;;;2081648;28;20944;-70
2022/04/28 01:54:59;;;;;;;15.20;11.40;;;8.20;99.90;;;;;;2067318;28;20030;-70
2022/04/28 01:55:59;;;;;;;15.38;10.85;;;8.20;99.90;;;;;;2077691;28;20026;-70
2022/04/28 01:57:00;;;;;;;16.58;12.13;;;8.20;99.90;;;;;;2079113;28;20484;-69
2022/04/28 01:58:00;;;;;;;13.43;10.35;;;8.20;99.90;;;;;;2079429;28;20515;-70
2022/04/28 01:59:01;;;;;;;14.23;11.10;;;8.20;99.90;;;;;;2078495;28;20032;-70
2022/04/28 02:00:04;;;;;;;15.82;11.57;;;8.20;99.90;;;;;;2079462;28;20029;-70
2022/04/28 02:01:05;;;;;;;12.77;9.10;;;8.20;99.90;;;;;;2082803;28;20128;-70
2022/04/28 02:02:05;;;;;;;13.35;11.57;;;8.20;99.90;;;;;;2079992;28;20052;-70
2022/04/28 02:03:07;;;;;;;15.20;11.55;;;8.20;99.90;;;;;;2078462;28;20056;-70
2022/04/28 02:04:07;;;;;;;15.57;11.32;;;8.20;99.90;;;;;;2079790;28;20026;-70
2022/04/28 02:05:09;;;;;;;20.33;11.70;;;8.20;99.90;;;;;;2081473;28;20037;-69
2022/04/28 02:06:09;;;;;;;19.45;11.98;;;8.20;99.90;;;;;;2079764;28;20026;-69
2022/04/28 02:07:11;;;;;;;18.95;11.77;;;8.10;99.90;;;;;;2080453;28;20146;-70
2022/04/28 02:08:12;;;;;;;15.85;11.82;;;8.10;99.90;;;;;;2079335;28;20021;-70
2022/04/28 02:09:13;;;;;;;14.38;11.32;;;8.10;99.90;;;;;;2079770;28;20087;-70
2022/04/28 02:10:13;;;;;;;9.75;8.65;;;8.10;99.90;;;;;;2078534;28;20025;-70
2022/04/28 02:11:14;;;;;;;8.55;7.72;;;8.10;99.90;;;;;;2080513;28;20072;-70
2022/04/28 02:12:15;;;;;;;10.65;8.70;;;8.20;99.90;;;;;;2079609;28;20028;-70
2022/04/28 02:13:15;;;;;;;14.13;10.90;;;8.10;99.90;;;;;;2079201;28;20048;-70
2022/04/28 02:14:16;;;;;;;13.07;10.43;;;8.10;99.90;;;;;;2081525;28;20034;-70
2022/04/28 02:15:16;;;;;;;17.98;12.18;;;8.20;99.90;;;;;;2079038;28;20026;-70
2022/04/28 02:16:17;;;;;;;17.00;11.45;;;8.10;99.90;;;;;;2079777;28;20017;-70
2022/04/28 02:17:22;;;;;;;13.02;9.52;;;8.20;99.90;;;;;;2080567;28;20017;-70
2022/04/28 02:18:23;;;;;;;15.90;11.27;;;8.20;99.90;;;;;;2079491;28;20049;-70
2022/04/28 02:19:24;;;;;;;9.82;8.82;;;8.20;99.90;;;;;;2078384;28;20021;-70
2022/04/28 02:20:26;;;;;;;16.60;11.57;;;8.20;99.90;;;;;;2079700;28;20022;-70
2022/04/28 02:21:27;;;;;;;15.18;11.23;;;8.20;99.90;;;;;;2081663;28;20026;-70
2022/04/28 02:22:27;;;;;;;13.02;11.55;;;8.20;99.90;;;;;;2078729;28;20022;-69
2022/04/28 02:23:28;;;;;;;13.07;11.05;;;8.10;99.90;;;;;;2078949;28;20022;-70
2022/04/28 02:24:28;;;;;;;15.07;11.15;;;8.20;99.90;;;;;;2079640;28;20104;-70
2022/04/28 02:25:29;;;;;;;15.40;11.38;;;8.10;99.90;;;;;;2081482;28;20408;-70
2022/04/28 02:26:29;;;;;;;15.80;10.10;;;8.10;99.90;;;;;;2080856;28;20029;-70
2022/04/28 02:27:30;;;;;;;14.55;11.32;;;8.10;99.90;;;;;;2081393;28;20098;-70
2022/04/28 02:28:30;;;;;;;13.43;11.40;;;8.10;99.90;;;;;;2080798;28;20072;-70
2022/04/28 02:29:31;;;;;;;17.42;11.35;;;8.10;99.90;;;;;;2081077;28;20018;-70
2022/04/28 02:30:32;;;;;;;16.05;12.48;;;8.10;99.90;;;;;;2077979;28;20079;-70
2022/04/28 02:31:32;;;;;;;16.40;11.93;;;8.10;99.90;;;;;;2081122;28;20025;-70
2022/04/28 02:33:08;;;;;;;13.20;11.40;;;8.10;99.90;;;;;;2080730;28;20024;-70
2022/04/28 02:33:53;;;;;;;;;;;8.10;99.90;;;;;;2078099;28;20094;-70
2022/04/28 02:34:54;;;;;;;17.83;11.88;;;8.00;99.90;;;;;;2081012;28;19928;-70
2022/04/28 02:35:54;;;;;;;16.63;10.45;;;8.10;99.90;;;;;;2081047;28;20156;-70
2022/04/28 02:36:55;;;;;;;15.23;10.98;;;8.10;99.90;;;;;;2083177;28;20030;-69
2022/04/28 02:37:55;;;;;;;13.82;9.77;;;8.10;99.90;;;;;;2080781;28;20052;-70
2022/04/28 02:38:56;;;;;;;12.77;11.07;;;8.10;99.90;;;;;;2081939;28;20037;-70
2022/04/28 02:39:56;;;;;;;13.98;10.27;;;8.10;99.90;;;;;;2081322;28;20116;-70
2022/04/28 02:40:57;;;;;;;14.90;10.98;;;8.10;99.90;;;;;;2082623;28;20037;-70
2022/04/28 02:41:57;;;;;;;15.18;11.77;;;8.10;99.90;;;;;;2081153;28;20022;-70
2022/04/28 02:42:59;;;;;;;16.20;11.40;;;8.10;99.90;;;;;;2080761;28;20034;-70
2022/04/28 02:44:00;;;;;;;16.73;9.30;;;8.10;99.90;;;;;;2081046;28;20108;-70
2022/04/28 02:45:00;;;;;;;13.38;11.15;;;8.10;99.90;;;;;;2082581;28;20017;-70
2022/04/28 02:46:01;;;;;;;12.60;10.32;;;8.10;99.90;;;;;;2081719;28;20032;-70
2022/04/28 02:47:02;;;;;;;13.48;9.27;;;8.10;99.90;;;;;;2081537;28;20025;-70
2022/04/28 02:48:02;;;;;;;12.75;9.65;;;8.10;99.90;;;;;;2081472;28;20059;-70
2022/04/28 02:49:04;;;;;;;14.80;10.07;;;8.10;99.90;;;;;;2080820;28;20205;-70
2022/04/28 02:50:05;;;;;;;12.65;10.05;;;8.10;99.90;;;;;;2080856;28;20022;-70
2022/04/28 02:51:06;;;;;;;9.77;8.70;;;8.10;99.90;;;;;;2080667;28;20515;-70
2022/04/28 02:52:07;;;;;;;16.40;11.70;;;8.10;99.90;;;;;;2083355;28;20401;-70
2022/04/28 02:53:07;;;;;;;15.25;11.73;;;8.10;99.90;;;;;;2082691;28;20422;-70
2022/04/28 02:54:09;;;;;;;15.65;11.80;;;8.10;99.90;;;;;;2082429;28;20022;-70
2022/04/28 02:55:10;;;;;;;13.85;11.27;;;8.10;99.90;;;;;;2080284;28;20033;-70
2022/04/28 02:56:11;;;;;;;15.10;10.30;;;8.10;99.90;;;;;;2080577;28;20025;-70
2022/04/28 02:57:11;;;;;;;15.63;9.88;;;8.10;99.90;;;;;;2080407;28;20030;-70
2022/04/28 02:58:12;;;;;;;15.68;12.90;;;8.10;99.90;;;;;;2080831;28;20037;-70
2022/04/28 02:59:12;;;;;;;20.23;11.70;;;8.10;99.90;;;;;;2080355;28;20116;-70
2022/04/28 03:00:13;;;;;;;15.48;12.13;;;8.10;99.90;;;;;;2081155;28;20112;-70
2022/04/28 03:01:14;;;;;;;13.90;10.25;;;8.10;99.90;;;;;;2082465;28;20047;-70
2022/04/28 03:02:14;;;;;;;14.55;9.98;;;8.00;99.90;;;;;;2080385;28;20036;-70
2022/04/28 03:03:15;;;;;;;12.93;11.30;;;8.00;99.90;;;;;;2080582;28;20512;-70
2022/04/28 03:04:15;;;;;;;15.55;11.25;;;8.00;99.90;;;;;;2081315;28;20026;-70
2022/04/28 03:05:16;;;;;;;10.75;9.60;;;8.00;99.90;;;;;;2080026;28;20026;-70
2022/04/28 03:11:47;;;;;;;14.90;11.15;;;7.90;99.90;;;;;;2080425;28;20112;-70
2022/04/28 03:12:47;;;;;;;14.27;11.38;;;7.90;99.90;;;;;;2080510;28;20025;-70
2022/04/28 03:13:49;;;;;;;16.80;12.10;;;7.90;99.90;;;;;;2083832;28;20051;-70
2022/04/28 03:14:50;;;;;;;14.98;10.95;;;7.80;99.90;;;;;;2083717;28;20047;-70
2022/04/28 03:15:51;;;;;;;14.25;11.43;;;7.90;99.90;;;;;;2082355;28;20041;-70
2022/04/28 03:16:52;;;;;;;12.20;9.77;;;7.80;99.90;;;;;;2082424;28;20107;-70
2022/04/28 03:17:52;;;;;;;21.33;12.90;;;7.90;99.90;;;;;;2081710;28;20497;-70
2022/04/28 03:18:53;;;;;;;14.30;11.45;;;7.80;99.90;;;;;;2083746;28;20083;-70
2022/04/28 03:19:53;;;;;;;15.82;12.00;;;7.90;99.90;;;;;;2080772;28;20037;-70
2022/04/28 03:20:54;;;;;;;11.63;9.90;;;7.80;99.90;;;;;;2080579;28;20061;-70
2022/04/28 03:21:55;;;;;;;12.70;9.88;;;7.80;99.90;;;;;;2083860;28;20033;-70
2022/04/28 03:22:55;;;;;;;18.33;11.25;;;7.80;99.90;;;;;;2081960;28;20029;-70
2022/04/28 03:23:56;;;;;;;11.40;9.95;;;7.80;99.90;;;;;;2080661;28;20039;-70
2022/04/28 03:24:57;;;;;;;12.25;10.73;;;7.80;99.90;;;;;;2082173;28;20033;-70
2022/04/28 03:25:58;;;;;;;13.95;10.75;;;7.80;99.90;;;;;;2081345;28;20022;-70
2022/04/28 03:26:58;;;;;;;22.55;13.95;;;7.80;99.90;;;;;;2080597;28;20478;-70
2022/04/28 03:27:59;;;;;;;12.95;10.70;;;7.80;99.90;;;;;;2080623;28;20044;-70
2022/04/28 03:28:59;;;;;;;20.45;13.15;;;7.80;99.90;;;;;;2084173;28;20040;-70
2022/04/28 03:30:00;;;;;;;19.52;12.80;;;7.80;99.90;;;;;;2080601;28;20021;-70
2022/04/28 03:31:02;;;;;;;16.13;13.90;;;7.70;99.90;;;;;;2082627;28;20684;-70
2022/04/28 03:32:04;;;;;;;16.08;12.73;;;7.80;99.90;;;;;;2082801;28;20694;-70
2022/04/28 03:33:05;;;;;;;12.85;9.95;;;7.70;99.90;;;;;;2080920;28;20067;-70
2022/04/28 03:34:06;;;;;;;13.60;10.10;;;7.70;99.90;;;;;;2081419;28;20029;-70
2022/04/28 03:35:08;;;;;;;18.58;13.20;;;7.70;99.90;;;;;;2080316;28;20053;-70
2022/04/28 03:37:28;;;;;;;16.05;12.55;;;7.70;99.90;;;;;;2077912;28;20037;-70
2022/04/28 03:38:28;;;;;;;17.30;13.05;;;7.70;99.90;;;;;;2080246;28;20025;-70
2022/04/28 03:39:29;;;;;;;13.93;12.45;;;7.70;99.90;;;;;;2083070;28;20100;-70
2022/04/28 03:40:29;;;;;;;19.65;13.40;;;7.60;99.90;;;;;;2081771;28;20128;-70
2022/04/28 03:41:30;;;;;;;19.05;15.00;;;7.70;99.90;;;;;;2081756;28;20036;-70
2022/04/28 03:42:31;;;;;;;18.95;13.25;;;7.60;99.90;;;;;;2080681;28;20100;-70
2022/04/28 03:43:31;;;;;;;17.45;12.90;;;7.70;99.90;;;;;;2080545;28;20072;-70
2022/04/28 03:44:32;;;;;;;20.33;13.38;;;7.60;99.90;;;;;;2082008;28;20144;-70
2022/04/28 03:45:33;;;;;;;18.02;12.82;;;7.60;99.90;;;;;;2081695;28;20358;-70
2022/04/28 03:46:34;;;;;;;13.65;11.48;;;7.70;99.90;;;;;;2080471;28;20017;-70
2022/04/28 03:47:38;;;;;;;24.02;14.95;;;7.60;99.90;;;;;;2081610;28;20100;-70
2022/04/28 03:48:38;;;;;;;17.77;13.25;;;7.60;99.90;;;;;;2077928;28;20156;-70
2022/04/28 03:49:39;;;;;;;18.05;14.55;;;7.60;99.90;;;;;;2080859;28;20025;-70
2022/04/28 03:50:39;;;;;;;14.27;12.30;;;7.60;99.90;;;;;;2080516;28;20080;-70
2022/04/28 03:51:40;;;;;;;19.42;14.32;;;7.60;99.90;;;;;;2080232;28;20040;-70
2022/04/28 03:52:40;;;;;;;19.60;14.52;;;7.60;99.90;;;;;;2083368;28;20059;-70
2022/04/28 03:53:41;;;;;;;16.27;11.90;;;7.60;99.90;;;;;;2083773;28;20043;-70
2022/04/28 03:54:41;;;;;;;14.95;11.98;;;7.60;99.90;;;;;;2082053;28;20592;-70
2022/04/28 03:55:42;;;;;;;14.45;12.70;;;7.60;99.90;;;;;;2078951;28;20039;-70
2022/04/28 03:56:42;;;;;;;20.10;14.35;;;7.60;99.90;;;;;;2080293;28;20033;-70
2022/04/28 03:57:43;;;;;;;21.30;14.38;;;7.60;99.90;;;;;;2080199;28;20033;-70
2022/04/28 03:58:45;;;;;;;16.55;13.57;;;7.60;99.90;;;;;;2080998;28;20056;-70
2022/04/28 03:59:45;;;;;;;18.33;14.18;;;7.50;99.90;;;;;;2080281;28;20083;-70
2022/04/28 04:00:49;;;;;;;13.82;11.02;;;7.60;99.90;;;;;;2083982;28;20159;-70
2022/04/28 04:01:51;;;;;;;18.92;12.45;;;7.50;99.90;;;;;;2080140;28;20116;-70
2022/04/28 04:02:51;;;;;;;19.73;13.45;;;7.50;99.90;;;;;;2077744;28;20030;-70
2022/04/28 04:03:52;;;;;;;19.95;13.93;;;7.60;99.90;;;;;;2079916;28;20133;-70
2022/04/28 04:04:53;;;;;;;21.42;14.38;;;7.50;99.90;;;;;;2080108;28;20083;-70
2022/04/28 04:05:53;;;;;;;21.20;14.70;;;7.50;99.90;;;;;;2080782;28;20033;-70
2022/04/28 04:06:54;;;;;;;19.83;15.63;;;7.50;99.90;;;;;;2080832;28;20115;-70
2022/04/28 04:07:54;;;;;;;19.10;13.52;;;7.50;99.90;;;;;;2079998;28;20092;-70
2022/04/28 04:08:55;;;;;;;22.80;14.02;;;7.50;99.90;;;;;;2080380;28;20026;-70
2022/04/28 04:09:55;;;;;;;17.00;15.07;;;7.50;99.90;;;;;;2079955;28;20441;-70
2022/04/28 04:10:56;;;;;;;18.83;14.38;;;7.50;99.90;;;;;;2079549;28;20044;-70
2022/04/28 04:11:56;;;;;;;22.25;15.98;;;7.50;99.90;;;;;;2079274;28;20053;-70
2022/04/28 04:12:57;;;;;;;23.63;16.30;;;7.50;99.90;;;;;;2080366;28;20052;-70
2022/04/28 04:13:57;;;;;;;15.57;13.10;;;7.50;99.90;;;;;;2080487;28;20067;-70
2022/04/28 04:14:58;;;;;;;20.05;15.60;;;7.50;99.90;;;;;;2080000;28;20401;-70
2022/04/28 04:15:59;;;;;;;19.70;15.10;;;7.50;99.90;;;;;;2079667;28;20079;-70
2022/04/28 04:17:00;;;;;;;22.50;16.23;;;7.50;99.90;;;;;;2080255;28;20610;-70
2022/04/28 04:18:01;;;;;;;18.33;12.95;;;7.40;99.90;;;;;;2082826;28;20466;-70
2022/04/28 04:19:02;;;;;;;18.77;13.32;;;7.50;99.90;;;;;;2077279;28;20076;-70
2022/04/28 04:20:03;;;;;;;21.17;12.80;;;7.40;99.90;;;;;;2079386;28;20040;-70
2022/04/28 04:21:03;;;;;;;20.58;13.80;;;7.50;99.90;;;;;;2079778;28;20018;-70
2022/04/28 04:22:04;;;;;;;16.80;15.05;;;7.40;99.90;;;;;;2080209;28;20029;-70
2022/04/28 04:23:05;;;;;;;18.08;12.55;;;7.50;99.90;;;;;;2079642;28;20121;-70
2022/04/28 04:24:06;;;;;;;21.58;13.10;;;7.40;99.90;;;;;;2080144;28;20025;-70
2022/04/28 04:25:07;;;;;;;16.30;12.73;;;7.50;99.90;;;;;;2082353;28;20025;-70
2022/04/28 04:26:08;;;;;;;18.30;12.73;;;7.40;99.90;;;;;;2080138;28;20026;-70
2022/04/28 04:27:09;;;;;;;19.88;12.77;;;7.40;99.90;;;;;;2078424;28;20505;-70
2022/04/28 04:28:10;;;;;;;16.75;11.85;;;7.40;99.90;;;;;;2079726;28;20044;-70
2022/04/28 04:29:12;;;;;;;15.77;11.70;;;7.40;99.90;;;;;;2079507;28;20045;-70
2022/04/28 04:32:51;;;;;;;13.63;11.23;;;7.40;99.90;;;;;;2076436;28;20388;-70
2022/04/28 04:33:52;;;;;;;13.30;11.88;;;7.40;99.90;;;;;;2080364;28;20021;-70
2022/04/28 04:34:53;;;;;;;17.52;14.60;;;7.40;99.90;;;;;;2081849;28;20029;-70
2022/04/28 04:35:53;;;;;;;21.05;13.93;;;7.40;99.90;;;;;;2080674;28;20145;-70
2022/04/28 04:36:54;;;;;;;17.10;13.05;;;7.40;99.90;;;;;;2081438;28;20041;-70
2022/04/28 04:37:54;;;;;;;21.30;14.43;;;7.40;99.90;;;;;;2080691;28;20061;-70
2022/04/28 04:38:55;;;;;;;17.88;14.70;;;7.40;99.90;;;;;;2080286;28;20025;-70
2022/04/28 04:39:56;;;;;;;20.30;13.50;;;7.40;99.90;;;;;;2079245;28;20079;-70
2022/04/28 04:40:56;;;;;;;17.65;14.23;;;7.40;99.90;;;;;;2078798;28;20021;-70
2022/04/28 04:41:57;;;;;;;18.98;13.23;;;7.40;99.90;;;;;;2081234;28;20033;-70
2022/04/28 04:42:57;;;;;;;18.33;13.57;;;7.40;99.90;;;;;;2076098;28;20409;-70
2022/04/28 04:43:58;;;;;;;18.13;14.40;;;7.40;99.90;;;;;;2076937;28;20450;-70
2022/04/28 04:44:58;;;;;;;17.13;14.18;;;7.40;99.90;;;;;;2078901;28;20034;-70
2022/04/28 04:45:59;;;;;;;16.80;13.73;;;7.40;99.90;;;;;;2078491;28;20100;-70
2022/04/28 04:47:00;;;;;;;21.08;15.50;;;7.40;99.90;;;;;;2079653;28;20029;-70
2022/04/28 04:48:00;;;;;;;20.17;14.98;;;7.30;99.90;;;;;;2078344;28;20067;-70
2022/04/28 04:49:01;;;;;;;21.83;15.32;;;7.40;99.90;;;;;;2079063;28;20447;-70
2022/04/28 04:50:02;;;;;;;18.75;14.00;;;7.40;99.90;;;;;;2079120;28;20524;-70
2022/04/28 04:51:03;;;;;;;17.60;13.27;;;7.40;99.90;;;;;;2079331;28;20025;-70
2022/04/28 04:52:04;;;;;;;18.52;13.60;;;7.40;99.90;;;;;;2078976;28;20492;-70
2022/04/28 04:53:05;;;;;;;19.52;13.75;;;7.40;99.90;;;;;;2076833;28;20022;-70
2022/04/28 04:54:06;;;;;;;15.80;12.93;;;7.40;99.90;;;;;;2081577;28;20120;-70
2022/04/28 04:55:07;;;;;;;16.55;13.68;;;7.40;99.90;;;;;;2079538;28;20440;-70
2022/04/28 04:56:07;;;;;;;17.05;12.82;;;7.40;99.90;;;;;;2080135;28;20453;-70
2022/04/28 04:57:08;;;;;;;17.33;11.60;;;7.40;99.90;;;;;;2081049;28;20041;-70
2022/04/28 04:58:08;;;;;;;16.60;12.82;;;7.40;99.90;;;;;;2079258;28;20100;-70
2022/04/28 04:59:09;;;;;;;20.20;13.90;;;7.40;99.90;;;;;;2076861;28;20021;-70
2022/04/28 05:00:10;;;;;;;17.08;12.60;;;7.40;99.90;;;;;;2079058;28;20048;-70
2022/04/28 05:01:11;;;;;;;20.48;14.40;;;7.40;99.90;;;;;;2079434;28;20037;-70
2022/04/28 05:02:11;;;;;;;19.00;13.90;;;7.40;99.90;;;;;;2078157;28;20064;-70
2022/04/28 05:03:13;;;;;;;18.38;13.82;;;7.50;99.90;;;;;;2079303;28;20025;-70
2022/04/28 05:04:13;;;;;;;16.92;12.50;;;7.50;99.90;;;;;;2079325;28;20714;-70
2022/04/28 05:05:15;;;;;;;21.88;16.33;;;7.50;99.90;;;;;;2078555;28;20417;-70
2022/04/28 05:06:16;;;;;;;22.15;15.98;;;7.40;99.90;;;;;;2079316;28;20057;-70
2022/04/28 05:07:17;;;;;;;22.05;17.35;;;7.40;99.90;;;;;;2078689;28;20478;-70
2022/04/28 05:08:17;;;;;;;20.70;17.50;;;7.50;99.90;;;;;;2078724;28;20030;-70
2022/04/28 05:09:18;;;;;;;16.45;13.63;;;7.40;99.90;;;;;;2083676;28;20018;-70
2022/04/28 05:10:18;;;;;;;17.10;14.57;;;7.40;99.90;;;;;;2078987;28;20049;-70
2022/04/28 05:11:19;;;;;;;18.33;14.25;;;7.50;99.90;;;;;;2079570;28;20018;-70
2022/04/28 05:12:20;;;;;;;18.98;15.15;;;7.50;99.90;;;;;;2076789;28;20029;-70
2022/04/28 05:13:20;;;;;;;15.02;12.77;;;7.50;99.90;;;;;;2079400;28;20040;-70
2022/04/28 05:14:21;;;;;;;18.42;14.43;;;7.50;99.90;;;;;;2077325;28;20021;-70
2022/04/28 05:15:21;;;;;;;19.38;13.75;;;7.50;99.90;;;;;;2078760;28;20563;-70
2022/04/28 05:16:22;;;;;;;16.80;13.68;;;7.50;99.90;;;;;;2079305;28;20363;-70
2022/04/28 05:17:22;;;;;;;20.92;15.35;;;7.50;99.90;;;;;;2078809;28;20024;-70
2022/04/28 05:18:23;;;;;;;18.67;14.20;;;7.60;99.90;;;;;;2078719;28;20018;-70
2022/04/28 05:19:24;;;;;;;24.27;15.25;;;7.60;99.90;;;;;;2078475;28;20057;-70
2022/04/28 05:20:25;;;;;;;18.50;15.38;;;7.70;99.90;;;;;;2077239;28;20459;-70
2022/04/28 05:21:26;;;;;;;18.80;15.02;;;7.70;99.90;;;;;;2080586;28;20091;-70
2022/04/28 05:22:26;;;;;;;19.55;15.85;;;7.80;99.90;;;;;;2079158;28;20029;-70
2022/04/28 05:23:27;;;;;;;20.98;15.40;;;7.80;99.90;;;;;;2084810;28;20103;-70
2022/04/28 05:24:27;;;;;;;19.20;15.77;;;7.90;99.90;;;;;;2083575;28;20108;-70
2022/04/28 05:25:29;;;;;;;20.20;14.63;;;7.90;99.90;;;;;;2078525;28;20476;-70
2022/04/28 05:26:29;;;;;;;20.98;15.68;;;8.00;99.90;;;;;;2074061;28;20520;-70
2022/04/28 05:27:30;;;;;;;18.88;15.10;;;8.10;99.90;;;;;;2073762;28;20505;-70
2022/04/28 05:28:31;;;;;;;19.52;15.60;;;8.20;99.90;;;;;;2078546;28;20021;-70
2022/04/28 05:29:32;;;;;;;22.80;16.27;;;8.20;99.90;;;;;;2078254;28;20033;-70
2022/04/28 05:30:32;;;;;;;22.27;15.75;;;8.30;99.90;;;;;;2078851;28;20017;-70
2022/04/28 05:31:33;;;;;;;19.17;15.23;;;8.40;99.90;;;;;;2079054;28;20021;-70